Time;durP1;ratioP1;P1;durP2;ratioP2;P2;SDS_P1;SDS_P2;PMS_P1;PMS_P2;Temp;Humidity;BMP_temperature;BMP_pressure;BME280_temperature;BME280_humidity;BME280_pressure;Samples;Min_cycle;Max_cycle;Signal;HPM_P1;HPM_P2
2022/10/19 00:00:14;;;;;;;;;;;;;;;9.95;100.00;101019.91;5551724;32;34941;-67
2022/10/19 00:03:21;;;;;;;;;;;;;;;9.88;100.00;101012.69;5551663;32;34608;-68
2022/10/19 00:06:34;;;;;;;;;;;;;;;9.86;100.00;101020.81;5551667;32;34170;-67
2022/10/19 00:09:44;;;;;;;;;;;;;;;9.81;100.00;101017.75;5551626;32;34914;-68
2022/10/19 00:12:50;;;;;;;;;;;;;;;9.75;100.00;101007.75;5551600;32;34275;-68
2022/10/19 00:16:00;;;;;;;;;;;;;;;9.69;100.00;101003.03;5551450;32;34493;-67
2022/10/19 00:19:13;;;;;;;;;;;;;;;9.64;100.00;100999.16;5551499;32;34935;-67
2022/10/19 00:22:20;;;;;;;;;;;;;;;9.58;100.00;100987.34;5551804;32;34272;-68
2022/10/19 00:25:29;;;;;;;;;;;;;;;9.51;100.00;100986.25;5538488;32;34248;-67
2022/10/19 00:28:37;;;;;;;;;;;;;;;9.46;100.00;100973.44;5551402;32;34875;-67
2022/10/19 00:31:45;;;;;;;;;;;;;;;9.40;100.00;100976.66;5538310;32;34311;-67
2022/10/19 00:34:51;;;;;;;;;;;;;;;9.34;100.00;100982.56;5551419;32;34196;-68
2022/10/19 00:37:58;;;;;;;;;;;;;;;9.36;100.00;100983.25;5551555;32;34723;-68
2022/10/19 00:41:05;;;;;;;;;;;;;;;9.36;100.00;100964.69;5551346;32;34455;-67
2022/10/19 00:44:14;;;;;;;;;;;;;;;9.35;100.00;100960.38;5537293;32;35201;-67
2022/10/19 00:47:24;;;;;;;;;;;;;;;9.33;100.00;100962.34;5551474;32;34830;-67
2022/10/19 00:50:31;;;;;;;;;;;;;;;9.34;100.00;100958.72;5551146;32;34401;-68
2022/10/19 00:53:42;;;;;;;;;;;;;;;9.41;100.00;100946.56;5537390;32;34460;-67
2022/10/19 00:56:52;;;;;;;;;;;;;;;9.44;100.00;100943.59;5551235;32;34867;-67
2022/10/19 01:00:02;;;;;;;;;;;;;;;9.53;100.00;100945.41;5550837;32;34931;-67
2022/10/19 01:03:10;;;;;;;;;;;;;;;9.54;100.00;100944.41;5551183;32;34862;-68
2022/10/19 01:06:18;;;;;;;;;;;;;;;9.58;100.00;100937.81;5537039;32;34677;-67
2022/10/19 01:09:25;;;;;;;;;;;;;;;9.71;100.00;100944.59;5551171;32;34853;-67
2022/10/19 01:12:36;;;;;;;;;;;;;;;9.80;100.00;100941.06;5537397;32;34265;-67
2022/10/19 01:15:42;;;;;;;;;;;;;;;9.87;100.00;100937.69;5537761;32;34210;-68
2022/10/19 01:18:57;;;;;;;;;;;;;;;9.95;100.00;100924.50;5550993;32;34591;-68
2022/10/19 01:22:11;;;;;;;;;;;;;;;10.02;100.00;100917.59;5550978;32;34441;-67
2022/10/19 01:25:37;;;;;;;;;;;;;;;10.10;100.00;100908.91;5550985;32;34348;-68
2022/10/19 01:29:01;;;;;;;;;;;;;;;10.14;100.00;100915.56;5551008;32;34930;-68
2022/10/19 01:32:10;;;;;;;;;;;;;;;10.17;100.00;100915.28;5551093;32;34643;-67
2022/10/19 01:35:28;;;;;;;;;;;;;;;10.20;100.00;100900.91;5551017;32;34084;-68
2022/10/19 01:38:37;;;;;;;;;;;;;;;10.20;100.00;100898.25;5551198;32;35045;-67
2022/10/19 01:41:42;;;;;;;;;;;;;;;10.15;100.00;100903.16;5537665;32;34331;-67
2022/10/19 01:44:54;;;;;;;;;;;;;;;10.07;100.00;100895.13;5550819;32;34063;-68
2022/10/19 01:48:05;;;;;;;;;;;;;;;10.03;100.00;100898.06;5550812;32;34350;-68
2022/10/19 01:51:18;;;;;;;;;;;;;;;10.12;100.00;100898.16;5550710;32;34910;-68
2022/10/19 01:54:25;;;;;;;;;;;;;;;10.17;100.00;100902.03;5550579;32;35101;-68
2022/10/19 01:57:34;;;;;;;;;;;;;;;10.19;100.00;100896.56;5551097;32;34269;-67
2022/10/19 02:00:43;;;;;;;;;;;;;;;10.15;100.00;100896.03;5550657;32;34410;-67
2022/10/19 02:03:50;;;;;;;;;;;;;;;10.18;100.00;100898.37;5551010;32;34287;-68
2022/10/19 02:06:58;;;;;;;;;;;;;;;10.12;100.00;100903.47;5551041;32;34339;-67
2022/10/19 02:10:06;;;;;;;;;;;;;;;10.06;100.00;100890.81;5535449;32;34304;-67
2022/10/19 02:13:15;;;;;;;;;;;;;;;10.06;100.00;100901.41;5550411;32;34635;-68
2022/10/19 02:16:25;;;;;;;;;;;;;;;10.10;100.00;100886.84;5550422;32;34380;-67
2022/10/19 02:19:31;;;;;;;;;;;;;;;10.19;100.00;100891.28;5550447;32;34275;-68
2022/10/19 02:22:38;;;;;;;;;;;;;;;10.20;100.00;100887.66;5550417;32;34122;-67
2022/10/19 02:25:45;;;;;;;;;;;;;;;10.22;100.00;100888.31;5550184;32;35103;-68
2022/10/19 02:28:55;;;;;;;;;;;;;;;10.32;100.00;100892.53;5550204;32;34354;-68
2022/10/19 02:32:03;;;;;;;;;;;;;;;10.45;100.00;100895.66;5550318;32;34602;-68
2022/10/19 02:35:10;;;;;;;;;;;;;;;10.54;100.00;100896.53;5536177;32;35253;-67
2022/10/19 02:38:20;;;;;;;;;;;;;;;10.70;100.00;100899.28;5550065;32;34774;-68
2022/10/19 02:41:33;;;;;;;;;;;;;;;10.89;100.00;100898.25;5550321;32;34401;-68
2022/10/19 02:44:47;;;;;;;;;;;;;;;11.11;100.00;100889.75;5536011;32;33488;-67
2022/10/19 02:47:57;;;;;;;;;;;;;;;11.41;100.00;100891.03;5550102;32;34374;-68
2022/10/19 02:51:04;;;;;;;;;;;;;;;11.46;100.00;100893.22;5535702;32;34956;-67
2022/10/19 02:54:12;;;;;;;;;;;;;;;11.50;100.00;100884.75;5550038;32;33954;-68
2022/10/19 02:57:18;;;;;;;;;;;;;;;11.49;100.00;100885.75;5536020;32;34487;-68
2022/10/19 03:00:25;;;;;;;;;;;;;;;11.48;100.00;100885.88;5535695;32;34622;-68
2022/10/19 03:03:32;;;;;;;;;;;;;;;11.49;100.00;100885.75;5549761;32;34334;-68
2022/10/19 03:06:36;;;;;;;;;;;;;;;11.50;100.00;100889.22;5549655;32;34318;-68
2022/10/19 03:09:44;;;;;;;;;;;;;;;11.67;100.00;100880.28;5549642;32;34202;-67
2022/10/19 03:12:52;;;;;;;;;;;;;;;12.13;100.00;100898.37;5535691;32;34773;-68
2022/10/19 03:16:11;;;;;;;;;;;;;;;12.47;97.91;100898.22;5549365;32;34920;-68
2022/10/19 03:19:18;;;;;;;;;;;;;;;12.66;95.50;100897.00;5536204;32;34163;-68
2022/10/19 03:22:24;;;;;;;;;;;;;;;12.87;92.36;100893.81;5537871;32;34338;-68
2022/10/19 03:25:30;;;;;;;;;;;;;;;12.89;91.53;100892.66;5552040;32;35033;-68
2022/10/19 03:28:38;;;;;;;;;;;;;;;12.95;91.00;100881.31;5537829;32;34605;-69
2022/10/19 03:31:44;;;;;;;;;;;;;;;12.94;90.47;100890.31;5551945;32;34618;-69
2022/10/19 03:34:51;;;;;;;;;;;;;;;12.97;89.82;100889.94;5538975;32;34864;-68
2022/10/19 03:37:58;;;;;;;;;;;;;;;12.91;90.18;100888.00;5537814;32;34387;-68
2022/10/19 03:41:05;;;;;;;;;;;;;;;12.85;90.68;100886.00;5538150;32;34145;-66
2022/10/19 03:44:11;;;;;;;;;;;;;;;12.80;91.30;100884.84;5551582;32;34454;-68
2022/10/19 03:47:18;;;;;;;;;;;;;;;12.74;92.24;100889.00;5552043;32;34309;-66
2022/10/19 03:50:28;;;;;;;;;;;;;;;12.79;90.84;100892.00;5551844;32;34294;-66
2022/10/19 03:53:33;;;;;;;;;;;;;;;12.79;89.56;100891.16;5537992;32;32741;-67
2022/10/19 03:56:39;;;;;;;;;;;;;;;12.83;88.38;100880.00;5551763;32;34944;-67
2022/10/19 03:59:48;;;;;;;;;;;;;;;12.77;88.65;100875.38;5551703;32;34556;-67
2022/10/19 04:02:55;;;;;;;;;;;;;;;12.74;89.09;100890.84;5538560;32;34180;-68
2022/10/19 04:06:03;;;;;;;;;;;;;;;12.69;89.49;100880.69;5551685;32;34284;-67
2022/10/19 04:09:12;;;;;;;;;;;;;;;12.50;90.90;100889.88;5538538;32;34292;-67
2022/10/19 04:12:18;;;;;;;;;;;;;;;12.35;91.86;100888.03;5551559;32;34697;-67
2022/10/19 04:15:23;;;;;;;;;;;;;;;12.22;93.30;100888.56;5551291;32;34640;-67
2022/10/19 04:18:29;;;;;;;;;;;;;;;12.15;93.91;100899.00;5551486;32;34704;-68
2022/10/19 04:21:33;;;;;;;;;;;;;;;12.09;94.73;100901.53;5551781;32;33138;-68
2022/10/19 04:24:40;;;;;;;;;;;;;;;11.99;95.93;100896.38;5551567;32;34814;-66
2022/10/19 04:27:44;;;;;;;;;;;;;;;12.18;94.91;100890.72;5551510;32;34419;-68
2022/10/19 04:30:51;;;;;;;;;;;;;;;12.15;95.63;100892.91;5525291;32;34462;-67
2022/10/19 04:33:57;;;;;;;;;;;;;;;12.09;96.45;100885.56;5550606;32;35005;-68
2022/10/19 04:37:03;;;;;;;;;;;;;;;12.04;97.00;100893.22;5537463;32;34386;-68
2022/10/19 04:40:08;;;;;;;;;;;;;;;12.05;97.13;100887.69;5551321;32;34584;-69
2022/10/19 04:43:18;;;;;;;;;;;;;;;12.04;97.50;100879.91;5538380;32;34693;-69
2022/10/19 04:46:24;;;;;;;;;;;;;;;11.96;98.76;100894.00;5537336;32;35824;-69
2022/10/19 04:49:29;;;;;;;;;;;;;;;11.89;99.56;100882.38;5551163;32;34218;-68
2022/10/19 04:52:34;;;;;;;;;;;;;;;11.96;99.49;100891.34;5551151;32;34948;-67
2022/10/19 04:55:41;;;;;;;;;;;;;;;11.94;99.96;100876.56;5537234;32;34371;-67
2022/10/19 04:58:47;;;;;;;;;;;;;;;11.86;100.00;100890.66;5551018;32;34906;-67
2022/10/19 05:01:54;;;;;;;;;;;;;;;11.91;100.00;100887.56;5524976;32;35190;-68
2022/10/19 05:05:00;;;;;;;;;;;;;;;11.77;100.00;100889.81;5551108;32;34864;-68
2022/10/19 05:08:04;;;;;;;;;;;;;;;11.70;100.00;100888.81;5550908;32;34836;-68
2022/10/19 05:11:13;;;;;;;;;;;;;;;11.58;100.00;100889.25;5550897;32;34374;-69
2022/10/19 05:14:18;;;;;;;;;;;;;;;11.56;100.00;100902.72;5537278;32;34195;-69
2022/10/19 05:17:24;;;;;;;;;;;;;;;11.55;100.00;100902.88;5551026;32;34105;-67
2022/10/19 05:20:28;;;;;;;;;;;;;;;11.35;100.00;100896.97;5537614;32;34170;-66
2022/10/19 05:23:32;;;;;;;;;;;;;;;11.36;100.00;100893.34;5537393;32;34252;-68
2022/10/19 05:26:36;;;;;;;;;;;;;;;11.32;100.00;100907.94;5550980;32;34403;-65
2022/10/19 05:29:39;;;;;;;;;;;;;;;11.20;100.00;100901.22;5550629;32;34877;-68
2022/10/19 05:32:43;;;;;;;;;;;;;;;11.22;100.00;100907.22;5550485;32;35083;-66
2022/10/19 05:35:46;;;;;;;;;;;;;;;11.17;100.00;100918.31;5550684;32;34873;-67
2022/10/19 05:38:51;;;;;;;;;;;;;;;11.15;100.00;100922.13;5537052;32;34118;-67
2022/10/19 05:41:54;;;;;;;;;;;;;;;11.19;100.00;100924.28;5536554;32;34943;-66
2022/10/19 05:44:58;;;;;;;;;;;;;;;11.23;100.00;100925.63;5536647;32;34548;-67
2022/10/19 05:48:01;;;;;;;;;;;;;;;11.26;100.00;100929.81;5550161;32;34672;-66
2022/10/19 05:51:07;;;;;;;;;;;;;;;11.33;100.00;100930.81;5550304;32;34673;-67
2022/10/19 05:54:11;;;;;;;;;;;;;;;11.38;100.00;100938.31;5550329;32;34209;-66
2022/10/19 05:57:15;;;;;;;;;;;;;;;11.36;100.00;100932.34;5550140;32;34876;-67
2022/10/19 06:00:26;;;;;;;;;;;;;;;11.36;100.00;100933.19;5536326;32;34622;-66
2022/10/19 06:03:29;;;;;;;;;;;;;;;11.47;100.00;100942.69;5549883;32;34285;-66
2022/10/19 06:06:33;;;;;;;;;;;;;;;11.43;100.00;100947.47;5550823;32;34723;-66
2022/10/19 06:09:36;;;;;;;;;;;;;;;11.41;100.00;100944.16;5549972;32;34137;-67
2022/10/19 06:12:40;;;;;;;;;;;;;;;11.38;100.00;100943.62;5550057;32;34386;-67
2022/10/19 06:15:44;;;;;;;;;;;;;;;11.37;100.00;100942.81;5529688;32;34931;-66
2022/10/19 06:18:48;;;;;;;;;;;;;;;11.46;100.00;100963.13;5530501;32;34518;-67
2022/10/19 06:21:51;;;;;;;;;;;;;;;11.79;100.00;100965.94;5529442;32;34607;-67
2022/10/19 06:24:55;;;;;;;;;;;;;;;11.82;100.00;100962.94;5530808;32;34607;-66
2022/10/19 06:27:59;;;;;;;;;;;;;;;11.77;100.00;100963.44;5530566;32;34667;-66
2022/10/19 06:31:03;;;;;;;;;;;;;;;11.81;100.00;100975.44;5530060;32;34286;-66
2022/10/19 06:34:11;;;;;;;;;;;;;;;11.89;100.00;100975.44;5530525;32;34574;-66
2022/10/19 06:37:16;;;;;;;;;;;;;;;11.94;100.00;100977.59;5529682;32;34405;-66
2022/10/19 06:40:19;;;;;;;;;;;;;;;12.04;100.00;100975.66;5530704;32;34314;-66
2022/10/19 06:43:23;;;;;;;;;;;;;;;12.09;100.00;100983.97;5530119;32;34743;-66
2022/10/19 06:46:27;;;;;;;;;;;;;;;12.14;100.00;100986.97;5529488;32;36156;-66
2022/10/19 06:49:30;;;;;;;;;;;;;;;12.21;100.00;100980.00;5530523;32;34389;-66
2022/10/19 06:52:34;;;;;;;;;;;;;;;12.32;100.00;100987.66;5528975;32;34609;-66
2022/10/19 06:55:37;;;;;;;;;;;;;;;12.42;100.00;101006.13;5529595;32;34204;-67
2022/10/19 06:58:41;;;;;;;;;;;;;;;12.44;100.00;101007.63;5531972;32;34651;-66
2022/10/19 07:01:45;;;;;;;;;;;;;;;12.51;100.00;101005.97;5532088;32;34802;-67
2022/10/19 07:04:47;;;;;;;;;;;;;;;12.63;100.00;101003.84;5532162;32;35127;-66
2022/10/19 07:07:50;;;;;;;;;;;;;;;12.67;100.00;101012.31;5531654;32;34230;-67
2022/10/19 07:10:59;;;;;;;;;;;;;;;12.76;100.00;101016.66;5532556;32;34255;-66
2022/10/19 07:14:02;;;;;;;;;;;;;;;12.89;100.00;101036.44;5537046;32;34355;-66
2022/10/19 07:17:06;;;;;;;;;;;;;;;13.02;100.00;101030.63;5551882;32;34302;-66
2022/10/19 07:20:10;;;;;;;;;;;;;;;13.08;100.00;101035.25;5551602;32;34589;-67
2022/10/19 07:23:13;;;;;;;;;;;;;;;13.14;100.00;101047.94;5551654;32;34395;-66
2022/10/19 07:26:20;;;;;;;;;;;;;;;13.23;100.00;101052.25;5537325;32;34269;-67
2022/10/19 07:29:24;;;;;;;;;;;;;;;13.32;100.00;101063.75;5551590;32;34606;-67
2022/10/19 07:32:27;;;;;;;;;;;;;;;13.32;100.00;101051.25;5551791;32;34659;-67
2022/10/19 07:35:30;;;;;;;;;;;;;;;13.55;100.00;101056.72;5525360;32;35357;-66
2022/10/19 07:38:35;;;;;;;;;;;;;;;13.99;97.79;101046.38;5551629;32;34679;-67
2022/10/19 07:41:40;;;;;;;;;;;;;;;15.09;90.98;101055.88;5537555;32;34727;-68
2022/10/19 07:44:43;;;;;;;;;;;;;;;15.50;87.21;101064.31;5552918;32;34856;-67
2022/10/19 07:47:48;;;;;;;;;;;;;;;17.05;80.39;101066.63;5551611;32;34324;-68
2022/10/19 07:50:51;;;;;;;;;;;;;;;17.92;73.99;101059.00;5537449;32;34527;-68
2022/10/19 07:53:56;;;;;;;;;;;;;;;19.37;66.88;101055.59;5538008;32;34274;-68
2022/10/19 07:57:00;;;;;;;;;;;;;;;19.62;65.18;101053.09;5551617;32;34726;-69
2022/10/19 08:00:04;;;;;;;;;;;;;;;20.86;61.56;101050.91;5538163;32;34995;-69
2022/10/19 08:03:14;;;;;;;;;;;;;;;21.76;57.06;101044.06;5551486;32;34794;-70
2022/10/19 08:06:37;;;;;;;;;;;;;;;23.03;51.67;101050.28;5551533;32;34425;-69
2022/10/19 08:09:41;;;;;;;;;;;;;;;22.09;55.92;101052.62;5537100;32;33965;-69
2022/10/19 08:13:00;;;;;;;;;;;;;;;23.40;51.70;101049.81;5551456;32;34864;-68
2022/10/19 08:16:18;;;;;;;;;;;;;;;23.26;51.18;101044.88;5537318;32;34711;-69
2022/10/19 08:19:23;;;;;;;;;;;;;;;25.45;44.95;101048.91;5538075;32;34356;-69
2022/10/19 08:22:28;;;;;;;;;;;;;;;22.93;50.64;101048.13;5551269;32;34387;-69
2022/10/19 08:25:31;;;;;;;;;;;;;;;20.45;58.49;101040.56;5551308;32;34708;-69
2022/10/19 08:28:36;;;;;;;;;;;;;;;18.67;65.58;101048.97;5551256;32;34938;-68
2022/10/19 08:31:41;;;;;;;;;;;;;;;17.43;72.22;101043.00;5537834;32;34253;-69
2022/10/19 08:34:44;;;;;;;;;;;;;;;17.20;73.66;101051.28;5551225;32;34237;-69
2022/10/19 08:37:49;;;;;;;;;;;;;;;16.77;77.23;101043.28;5551282;32;34531;-68
2022/10/19 08:41:03;;;;;;;;;;;;;;;16.32;79.88;101046.28;5537497;32;34362;-68
2022/10/19 08:44:26;;;;;;;;;;;;;;;15.92;82.78;101045.84;5551404;32;34953;-67
2022/10/19 08:47:45;;;;;;;;;;;;;;;15.98;82.72;101046.91;5551073;32;34708;-68
2022/10/19 08:50:51;;;;;;;;;;;;;;;15.83;83.92;101044.25;5537763;32;34826;-67
2022/10/19 08:53:59;;;;;;;;;;;;;;;15.82;83.76;101042.59;5550980;32;34243;-67
2022/10/19 08:57:03;;;;;;;;;;;;;;;15.94;83.57;101043.78;5550523;32;34706;-68
2022/10/19 09:00:08;;;;;;;;;;;;;;;15.82;83.48;101041.78;5550830;32;34910;-68
2022/10/19 09:03:27;;;;;;;;;;;;;;;15.78;83.43;101041.28;5550857;32;34943;-68
2022/10/19 09:06:47;;;;;;;;;;;;;;;15.88;84.05;101036.50;5539056;32;34664;-69
2022/10/19 09:10:03;;;;;;;;;;;;;;;16.05;82.46;101026.41;5551129;32;35005;-69
2022/10/19 09:13:24;;;;;;;;;;;;;;;16.16;80.18;101036.66;5550589;32;34973;-67
2022/10/19 09:16:38;;;;;;;;;;;;;;;16.34;78.85;101038.91;5538443;32;34296;-67
2022/10/19 09:19:41;;;;;;;;;;;;;;;16.22;78.44;101032.38;5511093;32;35160;-68
2022/10/19 09:22:45;;;;;;;;;;;;;;;16.23;77.77;101031.34;5550514;32;34209;-68
2022/10/19 09:25:49;;;;;;;;;;;;;;;16.33;77.01;101039.91;5536698;32;34708;-67
2022/10/19 09:28:57;;;;;;;;;;;;;;;16.32;77.40;101035.56;5550637;32;34632;-68
2022/10/19 09:32:02;;;;;;;;;;;;;;;16.48;76.46;101043.37;5550631;32;34201;-67
2022/10/19 09:35:22;;;;;;;;;;;;;;;16.60;76.33;101036.56;5550144;32;34816;-68
2022/10/19 09:38:27;;;;;;;;;;;;;;;16.77;75.22;101037.94;5550374;32;35112;-68
2022/10/19 09:41:31;;;;;;;;;;;;;;;16.78;74.82;101039.59;5550354;32;34604;-68
2022/10/19 09:44:35;;;;;;;;;;;;;;;17.17;72.27;101039.12;5551020;32;34454;-67
2022/10/19 09:47:41;;;;;;;;;;;;;;;17.39;70.79;101043.37;5550304;32;34831;-68
2022/10/19 09:50:50;;;;;;;;;;;;;;;17.87;68.42;101051.53;5536793;32;32898;-69
2022/10/19 09:53:54;;;;;;;;;;;;;;;18.35;66.68;101052.34;5536700;32;34350;-69
2022/10/19 09:56:59;;;;;;;;;;;;;;;18.79;65.42;101049.16;5550603;32;34771;-70
2022/10/19 10:00:07;;;;;;;;;;;;;;;19.02;64.92;101041.56;5549601;32;36086;-72
2022/10/19 10:03:34;;;;;;;;;;;;;;;18.98;64.06;101039.47;5550425;32;34623;-71
2022/10/19 10:06:38;;;;;;;;;;;;;;;19.21;62.91;101031.81;5550193;32;34404;-69
2022/10/19 10:09:42;;;;;;;;;;;;;;;19.40;62.53;101014.81;5536665;32;34181;-69
2022/10/19 10:12:47;;;;;;;;;;;;;;;19.22;62.53;101021.91;5549474;32;34515;-69
2022/10/19 10:15:59;;;;;;;;;;;;;;;18.63;64.58;101028.09;5550089;32;34380;-69
2022/10/19 10:19:05;;;;;;;;;;;;;;;18.73;64.68;101017.75;5536245;32;35723;-70
2022/10/19 10:22:23;;;;;;;;;;;;;;;18.88;65.40;101006.81;5549939;32;34555;-67
2022/10/19 10:25:32;;;;;;;;;;;;;;;19.19;64.19;100998.91;5549910;32;34736;-68
2022/10/19 10:28:45;;;;;;;;;;;;;;;19.75;61.72;101006.50;5549999;32;34760;-68
2022/10/19 10:31:55;;;;;;;;;;;;;;;19.76;61.61;100994.66;5549010;32;34732;-69
2022/10/19 10:35:01;;;;;;;;;;;;;;;19.46;59.76;100992.47;5550148;32;34224;-69
2022/10/19 10:38:13;;;;;;;;;;;;;;;19.24;58.84;100982.16;5536171;32;35225;-68
2022/10/19 10:41:21;;;;;;;;;;;;;;;18.31;58.05;100989.31;5551293;32;34753;-69
2022/10/19 10:44:28;;;;;;;;;;;;;;;18.18;57.35;100981.25;5535927;32;34944;-68
2022/10/19 10:47:31;;;;;;;;;;;;;;;18.15;56.31;100987.84;5549573;32;34861;-68
2022/10/19 10:50:35;;;;;;;;;;;;;;;18.17;55.06;100993.84;5549737;32;34216;-70
2022/10/19 10:53:39;;;;;;;;;;;;;;;17.96;53.95;100990.47;5549490;32;34869;-70
2022/10/19 10:56:43;;;;;;;;;;;;;;;18.42;54.09;100986.06;5549491;32;34165;-71
2022/10/19 10:59:51;;;;;;;;;;;;;;;19.93;52.27;100967.06;5535827;32;34891;-69
2022/10/19 11:03:00;;;;;;;;;;;;;;;24.07;42.42;100973.50;5549366;32;35457;-67
2022/10/19 11:06:04;;;;;;;;;;;;;;;25.34;39.08;100963.72;5536193;32;34963;-70
2022/10/19 11:09:16;;;;;;;;;;;;;;;26.77;35.26;100966.97;5549027;32;34937;-70
2022/10/19 11:12:25;;;;;;;;;;;;;;;29.04;31.44;100960.69;5534860;32;34943;-69
2022/10/19 11:15:40;;;;;;;;;;;;;;;31.58;27.76;100961.47;5549183;32;34417;-70
2022/10/19 11:19:13;;;;;;;;;;;;;;;29.93;26.67;100960.69;5549177;32;34874;-72
2022/10/19 11:22:31;;;;;;;;;;;;;;;28.44;27.95;100952.22;5538604;32;34353;-71
2022/10/19 11:25:43;;;;;;;;;;;;;;;27.04;30.42;100958.72;5535537;32;34285;-70
2022/10/19 11:28:46;;;;;;;;;;;;;;;26.77;30.42;100964.25;5535220;32;35263;-69
2022/10/19 11:31:55;;;;;;;;;;;;;;;26.19;31.47;100951.44;5548937;32;34870;-71
2022/10/19 11:35:11;;;;;;;;;;;;;;;26.26;31.13;100946.63;5548837;32;34298;-70
2022/10/19 11:38:32;;;;;;;;;;;;;;;26.85;31.01;100947.41;5535232;32;34212;-72
2022/10/19 11:41:54;;;;;;;;;;;;;;;25.80;32.93;100934.44;5548945;32;34189;-71
2022/10/19 11:44:58;;;;;;;;;;;;;;;27.03;32.14;100938.03;5551766;32;34697;-73
2022/10/19 11:48:00;;;;;;;;;;;;;;;25.43;32.85;100943.19;5551610;32;35138;-70
2022/10/19 11:51:07;;;;;;;;;;;;;;;24.96;33.70;100931.13;5538095;32;34457;-70
2022/10/19 11:54:23;;;;;;;;;;;;;;;26.25;32.30;100931.38;5551606;32;34279;-72
2022/10/19 11:57:31;;;;;;;;;;;;;;;28.75;28.67;100931.22;5551887;32;34818;-70
2022/10/19 12:00:43;;;;;;;;;;;;;;;27.95;28.74;100938.19;5551603;32;34299;-69
2022/10/19 12:04:27;;;;;;;;;;;;;;;25.35;33.24;100919.19;5551478;32;33277;-69
2022/10/19 12:07:45;;;;;;;;;;;;;;;23.99;35.09;100928.63;5472967;32;34120;-70
2022/10/19 12:10:49;;;;;;;;;;;;;;;23.15;36.60;100930.12;5460242;32;35858;-70
2022/10/19 12:13:58;;;;;;;;;;;;;;;22.03;39.47;100925.69;5460461;32;33018;-70
2022/10/19 12:17:06;;;;;;;;;;;;;;;21.43;41.05;100916.72;5472668;32;33231;-70
2022/10/19 12:20:22;;;;;;;;;;;;;;;20.83;42.71;100903.81;5460093;32;35765;-70
2022/10/19 12:23:34;;;;;;;;;;;;;;;20.03;42.56;100901.94;5472815;32;34841;-69
2022/10/19 12:26:39;;;;;;;;;;;;;;;19.49;43.62;100897.03;5472842;32;34824;-70
2022/10/19 12:29:46;;;;;;;;;;;;;;;19.29;43.91;100893.56;5472202;32;34915;-69
2022/10/19 12:32:53;;;;;;;;;;;;;;;19.05;44.14;100905.84;5472748;32;34714;-70
2022/10/19 12:35:59;;;;;;;;;;;;;;;18.47;45.12;100886.84;5472414;32;34191;-68
2022/10/19 12:39:14;;;;;;;;;;;;;;;18.43;45.69;100893.69;5539475;32;34168;-68
2022/10/19 12:42:22;;;;;;;;;;;;;;;18.54;46.35;100894.97;5536957;32;34952;-68
2022/10/19 12:45:32;;;;;;;;;;;;;;;18.55;46.80;100885.84;5537288;32;35381;-68
2022/10/19 12:48:38;;;;;;;;;;;;;;;18.37;47.60;100875.69;5537499;32;34089;-70
2022/10/19 12:51:45;;;;;;;;;;;;;;;18.49;48.85;100879.41;5537094;32;34165;-69
2022/10/19 12:54:48;;;;;;;;;;;;;;;18.16;47.27;100871.34;5536610;32;35189;-70
2022/10/19 12:57:57;;;;;;;;;;;;;;;18.24;47.48;100878.38;5550980;32;34930;-67
2022/10/19 13:01:01;;;;;;;;;;;;;;;18.20;47.19;100875.25;5550757;32;34300;-69
2022/10/19 13:04:10;;;;;;;;;;;;;;;18.31;46.63;100868.44;5550714;32;34965;-68
2022/10/19 13:07:17;;;;;;;;;;;;;;;18.38;46.47;100871.16;5550865;32;34209;-68
2022/10/19 13:10:25;;;;;;;;;;;;;;;18.18;46.03;100868.44;5537044;32;34267;-69
2022/10/19 13:13:49;;;;;;;;;;;;;;;18.19;45.69;100864.75;5550500;32;34852;-69
2022/10/19 13:16:58;;;;;;;;;;;;;;;18.07;46.32;100872.56;5550663;32;34280;-70
2022/10/19 13:20:14;;;;;;;;;;;;;;;18.11;46.17;100864.91;5550785;32;34282;-69
2022/10/19 13:23:29;;;;;;;;;;;;;;;18.16;46.16;100859.75;5550680;32;35125;-69
2022/10/19 13:26:34;;;;;;;;;;;;;;;18.00;46.37;100855.62;5524454;32;34239;-70
2022/10/19 13:29:37;;;;;;;;;;;;;;;17.94;45.33;100872.56;5550153;32;35073;-71
2022/10/19 13:32:42;;;;;;;;;;;;;;;17.91;45.29;100872.94;5536995;32;34757;-68
2022/10/19 13:35:45;;;;;;;;;;;;;;;17.81;45.23;100875.22;5550741;32;34106;-69
2022/10/19 13:38:49;;;;;;;;;;;;;;;17.76;43.13;100883.88;5524351;32;32377;-69
2022/10/19 13:41:53;;;;;;;;;;;;;;;17.76;43.34;100877.69;5536996;32;34705;-68
2022/10/19 13:44:57;;;;;;;;;;;;;;;17.70;44.86;100883.84;5536727;32;34432;-68
2022/10/19 13:48:07;;;;;;;;;;;;;;;17.54;46.09;100876.12;5550377;32;34174;-66
2022/10/19 13:51:18;;;;;;;;;;;;;;;17.61;47.20;100885.06;5550454;32;34394;-67
2022/10/19 13:54:41;;;;;;;;;;;;;;;17.56;48.24;100885.63;5550176;32;35130;-68
2022/10/19 13:57:52;;;;;;;;;;;;;;;17.49;47.77;100881.25;5550228;32;34924;-68
2022/10/19 14:01:07;;;;;;;;;;;;;;;17.41;49.50;100876.06;5550244;32;34853;-68
2022/10/19 14:04:18;;;;;;;;;;;;;;;17.25;50.72;100869.19;5550133;32;34278;-68
2022/10/19 14:07:25;;;;;;;;;;;;;;;17.18;50.97;100868.34;5548896;32;34899;-68
2022/10/19 14:10:32;;;;;;;;;;;;;;;17.05;50.97;100866.41;5549959;32;34336;-67
2022/10/19 14:14:09;;;;;;;;;;;;;;;17.04;51.49;100862.06;5535904;32;35034;-69
2022/10/19 14:17:15;;;;;;;;;;;;;;;17.01;50.18;100873.19;5549109;32;34811;-68
2022/10/19 14:20:31;;;;;;;;;;;;;;;17.01;50.69;100869.69;5535669;32;34196;-67
2022/10/19 14:23:40;;;;;;;;;;;;;;;16.88;51.57;100878.47;5536162;32;35287;-67
2022/10/19 14:26:43;;;;;;;;;;;;;;;16.79;52.11;100876.97;5536216;32;35094;-68
2022/10/19 14:29:48;;;;;;;;;;;;;;;16.77;52.52;100879.00;5536336;32;34737;-68
2022/10/19 14:32:55;;;;;;;;;;;;;;;16.70;52.83;100872.81;5549961;32;34814;-68
2022/10/19 14:36:06;;;;;;;;;;;;;;;16.57;53.04;100880.69;5536034;32;34144;-68
2022/10/19 14:39:25;;;;;;;;;;;;;;;16.47;53.14;100879.19;5536345;32;34589;-68
2022/10/19 14:42:36;;;;;;;;;;;;;;;16.44;53.46;100870.72;5535755;32;34217;-69
2022/10/19 14:45:40;;;;;;;;;;;;;;;16.42;53.54;100878.94;5536146;32;34407;-67
2022/10/19 14:48:46;;;;;;;;;;;;;;;16.32;53.05;100872.25;5534519;32;34926;-67
2022/10/19 14:51:57;;;;;;;;;;;;;;;16.32;52.32;100877.59;5535134;32;35004;-68
2022/10/19 14:55:03;;;;;;;;;;;;;;;16.20;52.21;100874.63;5549031;32;34341;-67
2022/10/19 14:58:12;;;;;;;;;;;;;;;16.03;53.88;100863.34;5548757;32;34923;-66
2022/10/19 15:01:18;;;;;;;;;;;;;;;16.04;53.72;100859.66;5535468;32;35143;-67
2022/10/19 15:04:36;;;;;;;;;;;;;;;15.99;51.58;100851.38;5534671;32;35284;-68
2022/10/19 15:07:41;;;;;;;;;;;;;;;16.00;50.10;100863.72;5535379;32;34206;-68
2022/10/19 15:10:45;;;;;;;;;;;;;;;15.92;50.84;100866.53;5548873;32;34284;-67
2022/10/19 15:13:54;;;;;;;;;;;;;;;15.80;52.54;100872.56;5548465;32;34697;-68
2022/10/19 15:16:58;;;;;;;;;;;;;;;15.74;53.07;100873.31;5549613;32;34725;-68
2022/10/19 15:20:21;;;;;;;;;;;;;;;15.64;53.92;100862.94;5524868;32;35144;-67
2022/10/19 15:23:32;;;;;;;;;;;;;;;15.62;52.82;100867.66;5551527;32;35014;-67
2022/10/19 15:26:39;;;;;;;;;;;;;;;15.49;53.74;100875.50;5551468;32;34214;-68
2022/10/19 15:29:53;;;;;;;;;;;;;;;15.36;53.57;100876.16;5524589;32;35470;-67
2022/10/19 15:33:09;;;;;;;;;;;;;;;15.29;53.50;100887.78;5537645;32;34854;-68
2022/10/19 15:36:17;;;;;;;;;;;;;;;15.21;53.16;100883.34;5551447;32;34844;-67
2022/10/19 15:39:28;;;;;;;;;;;;;;;15.17;53.53;100872.22;5551468;32;34234;-69
2022/10/19 15:42:47;;;;;;;;;;;;;;;15.12;53.53;100860.41;5539452;32;34308;-67
2022/10/19 15:45:59;;;;;;;;;;;;;;;15.05;54.06;100867.53;5551213;32;34653;-66
2022/10/19 15:49:24;;;;;;;;;;;;;;;15.02;53.78;100876.72;5551203;32;34339;-67
2022/10/19 15:52:33;;;;;;;;;;;;;;;15.01;53.81;100877.72;5537595;32;34215;-68
2022/10/19 15:55:38;;;;;;;;;;;;;;;14.94;54.44;100895.53;5537685;32;34832;-67
2022/10/19 15:58:47;;;;;;;;;;;;;;;14.80;55.42;100901.69;5551630;32;34877;-68
2022/10/19 16:01:55;;;;;;;;;;;;;;;14.68;56.11;100897.78;5537099;32;34848;-66